sensor_id;sensor_type;location;lat;lon;timestamp;P1;durP1;ratioP1;P2;durP2;ratioP2
5452;SDS011;2749;53.576;9.822;2022-10-16T00:01:18;16.60;;;11.67;;
5452;SDS011;2749;53.576;9.822;2022-10-16T00:03:44;13.73;;;12.17;;
5452;SDS011;2749;53.576;9.822;2022-10-16T00:06:10;17.50;;;10.20;;
5452;SDS011;2749;53.576;9.822;2022-10-16T00:08:37;14.00;;;10.40;;
5452;SDS011;2749;53.576;9.822;2022-10-16T00:11:08;10.53;;;9.53;;
5452;SDS011;2749;53.576;9.822;2022-10-16T00:13:35;11.57;;;9.23;;
5452;SDS011;2749;53.576;9.822;2022-10-16T00:16:02;10.77;;;8.70;;
5452;SDS011;2749;53.576;9.822;2022-10-16T00:18:28;11.33;;;10.07;;
5452;SDS011;2749;53.576;9.822;2022-10-16T00:20:55;8.77;;;7.87;;
5452;SDS011;2749;53.576;9.822;2022-10-16T00:23:21;8.40;;;7.60;;
5452;SDS011;2749;53.576;9.822;2022-10-16T00:26:00;8.03;;;7.23;;
5452;SDS011;2749;53.576;9.822;2022-10-16T00:28:26;9.37;;;6.60;;
5452;SDS011;2749;53.576;9.822;2022-10-16T00:30:52;9.93;;;6.80;;
5452;SDS011;2749;53.576;9.822;2022-10-16T00:33:18;8.23;;;6.80;;
5452;SDS011;2749;53.576;9.822;2022-10-16T00:35:44;8.80;;;6.30;;
5452;SDS011;2749;53.576;9.822;2022-10-16T00:38:10;9.83;;;6.77;;
5452;SDS011;2749;53.576;9.822;2022-10-16T00:40:36;6.13;;;5.53;;
5452;SDS011;2749;53.576;9.822;2022-10-16T00:43:02;7.40;;;5.47;;
5452;SDS011;2749;53.576;9.822;2022-10-16T00:45:28;13.53;;;4.83;;
5452;SDS011;2749;53.576;9.822;2022-10-16T00:47:54;6.80;;;5.10;;
5452;SDS011;2749;53.576;9.822;2022-10-16T00:50:28;8.03;;;5.57;;
5452;SDS011;2749;53.576;9.822;2022-10-16T00:52:55;10.20;;;5.53;;
5452;SDS011;2749;53.576;9.822;2022-10-16T00:55:21;7.43;;;5.13;;
5452;SDS011;2749;53.576;9.822;2022-10-16T00:57:48;4.90;;;4.40;;
5452;SDS011;2749;53.576;9.822;2022-10-16T01:00:16;7.67;;;5.00;;
5452;SDS011;2749;53.576;9.822;2022-10-16T01:02:43;5.10;;;4.37;;
5452;SDS011;2749;53.576;9.822;2022-10-16T01:05:09;5.17;;;4.67;;
5452;SDS011;2749;53.576;9.822;2022-10-16T01:07:38;6.50;;;4.80;;
5452;SDS011;2749;53.576;9.822;2022-10-16T01:15:36;5.20;;;4.20;;
5452;SDS011;2749;53.576;9.822;2022-10-16T01:20:51;8.50;;;4.10;;
5452;SDS011;2749;53.576;9.822;2022-10-16T01:23:21;5.00;;;3.77;;
5452;SDS011;2749;53.576;9.822;2022-10-16T01:28:46;5.07;;;4.40;;
5452;SDS011;2749;53.576;9.822;2022-10-16T01:31:14;3.67;;;3.37;;
5452;SDS011;2749;53.576;9.822;2022-10-16T01:33:44;5.10;;;4.60;;
5452;SDS011;2749;53.576;9.822;2022-10-16T01:36:13;5.70;;;3.00;;
5452;SDS011;2749;53.576;9.822;2022-10-16T01:38:40;7.43;;;4.23;;
5452;SDS011;2749;53.576;9.822;2022-10-16T01:41:13;3.70;;;3.30;;
5452;SDS011;2749;53.576;9.822;2022-10-16T01:43:41;5.10;;;3.00;;
5452;SDS011;2749;53.576;9.822;2022-10-16T01:46:08;7.13;;;5.10;;
5452;SDS011;2749;53.576;9.822;2022-10-16T01:48:34;4.07;;;3.30;;
5452;SDS011;2749;53.576;9.822;2022-10-16T01:51:03;4.00;;;3.60;;
5452;SDS011;2749;53.576;9.822;2022-10-16T01:53:30;3.43;;;2.97;;
5452;SDS011;2749;53.576;9.822;2022-10-16T01:55:56;3.50;;;3.10;;
5452;SDS011;2749;53.576;9.822;2022-10-16T01:58:24;4.37;;;3.30;;
5452;SDS011;2749;53.576;9.822;2022-10-16T02:00:51;5.30;;;3.23;;
5452;SDS011;2749;53.576;9.822;2022-10-16T02:03:18;3.60;;;2.73;;
5452;SDS011;2749;53.576;9.822;2022-10-16T02:05:46;4.00;;;3.53;;
5452;SDS011;2749;53.576;9.822;2022-10-16T02:08:12;3.83;;;2.57;;
5452;SDS011;2749;53.576;9.822;2022-10-16T02:10:39;5.03;;;3.43;;
5452;SDS011;2749;53.576;9.822;2022-10-16T02:13:09;2.90;;;2.60;;
5452;SDS011;2749;53.576;9.822;2022-10-16T02:15:36;7.07;;;3.47;;
5452;SDS011;2749;53.576;9.822;2022-10-16T02:18:03;2.70;;;2.50;;
5452;SDS011;2749;53.576;9.822;2022-10-16T02:20:32;3.83;;;3.53;;
5452;SDS011;2749;53.576;9.822;2022-10-16T02:22:59;6.23;;;3.00;;
5452;SDS011;2749;53.576;9.822;2022-10-16T02:25:30;3.30;;;2.93;;
5452;SDS011;2749;53.576;9.822;2022-10-16T02:27:57;3.47;;;2.73;;
5452;SDS011;2749;53.576;9.822;2022-10-16T02:30:28;3.37;;;2.70;;
5452;SDS011;2749;53.576;9.822;2022-10-16T02:32:55;5.53;;;3.47;;
5452;SDS011;2749;53.576;9.822;2022-10-16T02:35:22;4.67;;;3.47;;
5452;SDS011;2749;53.576;9.822;2022-10-16T02:37:48;2.20;;;2.00;;
5452;SDS011;2749;53.576;9.822;2022-10-16T02:40:15;2.80;;;2.30;;
5452;SDS011;2749;53.576;9.822;2022-10-16T02:42:42;5.17;;;2.50;;
5452;SDS011;2749;53.576;9.822;2022-10-16T02:45:09;2.47;;;2.27;;
5452;SDS011;2749;53.576;9.822;2022-10-16T02:47:35;3.00;;;2.70;;
5452;SDS011;2749;53.576;9.822;2022-10-16T02:50:01;5.70;;;2.20;;
5452;SDS011;2749;53.576;9.822;2022-10-16T02:52:27;2.93;;;2.30;;
5452;SDS011;2749;53.576;9.822;2022-10-16T02:54:53;2.97;;;1.90;;
5452;SDS011;2749;53.576;9.822;2022-10-16T02:57:19;4.97;;;2.33;;
5452;SDS011;2749;53.576;9.822;2022-10-16T02:59:45;7.30;;;2.40;;
5452;SDS011;2749;53.576;9.822;2022-10-16T03:02:11;3.60;;;2.00;;
5452;SDS011;2749;53.576;9.822;2022-10-16T03:04:37;4.40;;;2.00;;
5452;SDS011;2749;53.576;9.822;2022-10-16T03:07:03;8.80;;;2.10;;
5452;SDS011;2749;53.576;9.822;2022-10-16T03:09:29;2.43;;;2.23;;
5452;SDS011;2749;53.576;9.822;2022-10-16T03:11:55;3.43;;;2.30;;
5452;SDS011;2749;53.576;9.822;2022-10-16T03:14:21;2.20;;;2.10;;
5452;SDS011;2749;53.576;9.822;2022-10-16T03:16:47;5.27;;;2.33;;
5452;SDS011;2749;53.576;9.822;2022-10-16T03:19:13;2.23;;;2.00;;
5452;SDS011;2749;53.576;9.822;2022-10-16T03:21:39;10.10;;;4.47;;
5452;SDS011;2749;53.576;9.822;2022-10-16T03:24:05;11.30;;;2.90;;
5452;SDS011;2749;53.576;9.822;2022-10-16T03:26:31;4.93;;;1.90;;
5452;SDS011;2749;53.576;9.822;2022-10-16T03:28:57;2.90;;;2.70;;
5452;SDS011;2749;53.576;9.822;2022-10-16T03:31:23;3.73;;;2.67;;
5452;SDS011;2749;53.576;9.822;2022-10-16T03:33:49;8.20;;;2.60;;
5452;SDS011;2749;53.576;9.822;2022-10-16T03:36:15;4.33;;;2.50;;
5452;SDS011;2749;53.576;9.822;2022-10-16T03:38:41;4.10;;;2.30;;
5452;SDS011;2749;53.576;9.822;2022-10-16T03:41:07;4.50;;;2.90;;
5452;SDS011;2749;53.576;9.822;2022-10-16T03:43:33;2.97;;;2.73;;
5452;SDS011;2749;53.576;9.822;2022-10-16T03:45:59;2.37;;;2.17;;
5452;SDS011;2749;53.576;9.822;2022-10-16T03:48:25;3.30;;;1.80;;
5452;SDS011;2749;53.576;9.822;2022-10-16T03:50:51;3.07;;;2.53;;
5452;SDS011;2749;53.576;9.822;2022-10-16T03:53:17;3.80;;;2.63;;
5452;SDS011;2749;53.576;9.822;2022-10-16T03:55:43;2.63;;;2.17;;
5452;SDS011;2749;53.576;9.822;2022-10-16T03:58:09;4.73;;;2.87;;
5452;SDS011;2749;53.576;9.822;2022-10-16T04:00:35;2.70;;;2.33;;
5452;SDS011;2749;53.576;9.822;2022-10-16T04:03:01;3.10;;;2.53;;
5452;SDS011;2749;53.576;9.822;2022-10-16T04:05:27;3.10;;;2.53;;
5452;SDS011;2749;53.576;9.822;2022-10-16T04:07:53;7.17;;;2.77;;
5452;SDS011;2749;53.576;9.822;2022-10-16T04:10:19;5.23;;;2.77;;
5452;SDS011;2749;53.576;9.822;2022-10-16T04:12:46;4.17;;;2.50;;
5452;SDS011;2749;53.576;9.822;2022-10-16T04:15:11;11.53;;;3.30;;
5452;SDS011;2749;53.576;9.822;2022-10-16T04:17:38;2.97;;;2.77;;
5452;SDS011;2749;53.576;9.822;2022-10-16T04:20:04;4.57;;;2.50;;
5452;SDS011;2749;53.576;9.822;2022-10-16T04:22:30;4.30;;;3.27;;
5452;SDS011;2749;53.576;9.822;2022-10-16T04:24:56;4.10;;;2.27;;
5452;SDS011;2749;53.576;9.822;2022-10-16T04:27:22;13.13;;;2.90;;
5452;SDS011;2749;53.576;9.822;2022-10-16T04:29:47;4.80;;;3.10;;
5452;SDS011;2749;53.576;9.822;2022-10-16T04:32:13;2.80;;;2.10;;
5452;SDS011;2749;53.576;9.822;2022-10-16T04:34:39;7.63;;;2.37;;
5452;SDS011;2749;53.576;9.822;2022-10-16T04:37:05;3.80;;;2.20;;
5452;SDS011;2749;53.576;9.822;2022-10-16T04:39:31;8.23;;;2.20;;
5452;SDS011;2749;53.576;9.822;2022-10-16T04:41:57;3.13;;;2.20;;
5452;SDS011;2749;53.576;9.822;2022-10-16T04:44:23;5.40;;;2.03;;
5452;SDS011;2749;53.576;9.822;2022-10-16T04:46:52;4.73;;;2.17;;
5452;SDS011;2749;53.576;9.822;2022-10-16T04:49:18;7.37;;;2.90;;
5452;SDS011;2749;53.576;9.822;2022-10-16T04:51:44;3.00;;;2.23;;
5452;SDS011;2749;53.576;9.822;2022-10-16T04:54:10;3.03;;;2.30;;
5452;SDS011;2749;53.576;9.822;2022-10-16T04:56:36;3.03;;;2.20;;
5452;SDS011;2749;53.576;9.822;2022-10-16T04:59:08;3.93;;;2.70;;
5452;SDS011;2749;53.576;9.822;2022-10-16T05:01:34;3.47;;;2.80;;
5452;SDS011;2749;53.576;9.822;2022-10-16T05:04:00;2.60;;;2.40;;
5452;SDS011;2749;53.576;9.822;2022-10-16T05:06:26;4.03;;;3.23;;
5452;SDS011;2749;53.576;9.822;2022-10-16T05:08:52;4.27;;;3.20;;
5452;SDS011;2749;53.576;9.822;2022-10-16T05:11:18;3.73;;;3.40;;
5452;SDS011;2749;53.576;9.822;2022-10-16T05:13:44;5.23;;;3.10;;
5452;SDS011;2749;53.576;9.822;2022-10-16T05:16:10;4.60;;;3.60;;
5452;SDS011;2749;53.576;9.822;2022-10-16T05:18:36;4.40;;;3.40;;
5452;SDS011;2749;53.576;9.822;2022-10-16T05:21:02;3.63;;;3.33;;
5452;SDS011;2749;53.576;9.822;2022-10-16T05:23:27;6.40;;;3.90;;
5452;SDS011;2749;53.576;9.822;2022-10-16T05:25:54;6.63;;;4.37;;
5452;SDS011;2749;53.576;9.822;2022-10-16T05:28:23;3.70;;;3.40;;
5452;SDS011;2749;53.576;9.822;2022-10-16T05:30:49;5.93;;;3.80;;
5452;SDS011;2749;53.576;9.822;2022-10-16T05:33:15;7.17;;;3.73;;
5452;SDS011;2749;53.576;9.822;2022-10-16T05:35:40;5.10;;;4.70;;
5452;SDS011;2749;53.576;9.822;2022-10-16T05:38:06;5.53;;;4.50;;
5452;SDS011;2749;53.576;9.822;2022-10-16T05:40:32;8.50;;;4.60;;
5452;SDS011;2749;53.576;9.822;2022-10-16T05:42:58;5.13;;;4.03;;
5452;SDS011;2749;53.576;9.822;2022-10-16T05:45:24;7.73;;;7.00;;
5452;SDS011;2749;53.576;9.822;2022-10-16T05:47:50;8.80;;;5.00;;
5452;SDS011;2749;53.576;9.822;2022-10-16T05:50:16;5.33;;;4.27;;
5452;SDS011;2749;53.576;9.822;2022-10-16T05:52:42;7.50;;;5.53;;
5452;SDS011;2749;53.576;9.822;2022-10-16T05:55:08;9.03;;;4.70;;
5452;SDS011;2749;53.576;9.822;2022-10-16T05:57:34;7.67;;;4.40;;
5452;SDS011;2749;53.576;9.822;2022-10-16T06:00:00;5.70;;;4.10;;
5452;SDS011;2749;53.576;9.822;2022-10-16T06:02:26;8.70;;;5.50;;
5452;SDS011;2749;53.576;9.822;2022-10-16T06:04:52;6.03;;;4.93;;
5452;SDS011;2749;53.576;9.822;2022-10-16T06:07:21;5.47;;;4.23;;
5452;SDS011;2749;53.576;9.822;2022-10-16T06:09:50;7.87;;;4.30;;
5452;SDS011;2749;53.576;9.822;2022-10-16T06:12:16;6.30;;;4.87;;
5452;SDS011;2749;53.576;9.822;2022-10-16T06:14:42;9.67;;;4.43;;
5452;SDS011;2749;53.576;9.822;2022-10-16T06:17:08;4.57;;;3.70;;
5452;SDS011;2749;53.576;9.822;2022-10-16T06:19:34;4.90;;;4.40;;
5452;SDS011;2749;53.576;9.822;2022-10-16T06:22:00;8.20;;;5.60;;
5452;SDS011;2749;53.576;9.822;2022-10-16T06:24:27;5.57;;;4.27;;
5452;SDS011;2749;53.576;9.822;2022-10-16T06:26:53;6.90;;;4.90;;
5452;SDS011;2749;53.576;9.822;2022-10-16T06:29:19;5.93;;;4.13;;
5452;SDS011;2749;53.576;9.822;2022-10-16T06:31:45;6.30;;;4.00;;
5452;SDS011;2749;53.576;9.822;2022-10-16T06:34:11;6.03;;;4.50;;
5452;SDS011;2749;53.576;9.822;2022-10-16T06:36:37;4.93;;;4.33;;
5452;SDS011;2749;53.576;9.822;2022-10-16T06:39:03;7.20;;;5.40;;
5452;SDS011;2749;53.576;9.822;2022-10-16T06:41:30;5.07;;;4.60;;
5452;SDS011;2749;53.576;9.822;2022-10-16T06:43:56;6.83;;;4.90;;
5452;SDS011;2749;53.576;9.822;2022-10-16T06:46:23;4.73;;;4.20;;
5452;SDS011;2749;53.576;9.822;2022-10-16T06:48:49;5.30;;;4.13;;
5452;SDS011;2749;53.576;9.822;2022-10-16T06:51:19;21.93;;;5.60;;
5452;SDS011;2749;53.576;9.822;2022-10-16T06:53:46;6.13;;;4.20;;
5452;SDS011;2749;53.576;9.822;2022-10-16T06:58:43;6.20;;;5.43;;
5452;SDS011;2749;53.576;9.822;2022-10-16T07:01:09;7.33;;;4.70;;
5452;SDS011;2749;53.576;9.822;2022-10-16T07:03:36;6.10;;;4.77;;
5452;SDS011;2749;53.576;9.822;2022-10-16T07:06:03;7.70;;;5.37;;
5452;SDS011;2749;53.576;9.822;2022-10-16T07:08:33;6.93;;;5.63;;
5452;SDS011;2749;53.576;9.822;2022-10-16T07:11:03;8.20;;;5.37;;
5452;SDS011;2749;53.576;9.822;2022-10-16T07:13:30;6.73;;;5.60;;
5452;SDS011;2749;53.576;9.822;2022-10-16T07:15:55;9.07;;;5.80;;
5452;SDS011;2749;53.576;9.822;2022-10-16T07:18:21;7.73;;;5.73;;
5452;SDS011;2749;53.576;9.822;2022-10-16T07:20:51;8.50;;;5.30;;
5452;SDS011;2749;53.576;9.822;2022-10-16T07:23:17;8.73;;;5.20;;
5452;SDS011;2749;53.576;9.822;2022-10-16T07:25:43;6.40;;;5.27;;
5452;SDS011;2749;53.576;9.822;2022-10-16T07:28:09;9.10;;;5.90;;
5452;SDS011;2749;53.576;9.822;2022-10-16T07:30:35;15.10;;;5.83;;
5452;SDS011;2749;53.576;9.822;2022-10-16T07:33:02;9.17;;;5.60;;
5452;SDS011;2749;53.576;9.822;2022-10-16T07:35:28;7.70;;;5.97;;
5452;SDS011;2749;53.576;9.822;2022-10-16T07:37:54;6.83;;;5.20;;
5452;SDS011;2749;53.576;9.822;2022-10-16T07:40:20;7.20;;;6.00;;
5452;SDS011;2749;53.576;9.822;2022-10-16T07:42:46;6.07;;;4.93;;
5452;SDS011;2749;53.576;9.822;2022-10-16T07:45:11;10.10;;;5.60;;
5452;SDS011;2749;53.576;9.822;2022-10-16T07:47:37;9.40;;;6.00;;
5452;SDS011;2749;53.576;9.822;2022-10-16T07:50:03;5.70;;;4.70;;
5452;SDS011;2749;53.576;9.822;2022-10-16T07:52:29;14.50;;;6.00;;
5452;SDS011;2749;53.576;9.822;2022-10-16T07:54:55;6.83;;;5.33;;
5452;SDS011;2749;53.576;9.822;2022-10-16T07:57:21;7.63;;;5.70;;
5452;SDS011;2749;53.576;9.822;2022-10-16T07:59:47;6.57;;;5.90;;
5452;SDS011;2749;53.576;9.822;2022-10-16T08:02:13;7.53;;;4.90;;
5452;SDS011;2749;53.576;9.822;2022-10-16T08:04:39;5.67;;;5.17;;
5452;SDS011;2749;53.576;9.822;2022-10-16T08:07:06;7.73;;;6.10;;
5452;SDS011;2749;53.576;9.822;2022-10-16T08:09:33;7.13;;;4.47;;
5452;SDS011;2749;53.576;9.822;2022-10-16T08:11:59;6.73;;;5.93;;
5452;SDS011;2749;53.576;9.822;2022-10-16T08:14:25;5.97;;;5.30;;
5452;SDS011;2749;53.576;9.822;2022-10-16T08:16:51;7.83;;;5.63;;
5452;SDS011;2749;53.576;9.822;2022-10-16T08:19:18;6.50;;;5.10;;
5452;SDS011;2749;53.576;9.822;2022-10-16T08:21:46;6.20;;;5.60;;
5452;SDS011;2749;53.576;9.822;2022-10-16T08:24:12;8.13;;;4.43;;
5452;SDS011;2749;53.576;9.822;2022-10-16T08:26:38;8.13;;;5.10;;
5452;SDS011;2749;53.576;9.822;2022-10-16T08:29:04;7.17;;;4.70;;
5452;SDS011;2749;53.576;9.822;2022-10-16T08:31:30;5.80;;;4.20;;
5452;SDS011;2749;53.576;9.822;2022-10-16T08:33:56;4.60;;;4.10;;
5452;SDS011;2749;53.576;9.822;2022-10-16T08:36:22;6.53;;;4.57;;
5452;SDS011;2749;53.576;9.822;2022-10-16T08:38:48;12.83;;;8.30;;
5452;SDS011;2749;53.576;9.822;2022-10-16T08:41:23;5.80;;;4.73;;
5452;SDS011;2749;53.576;9.822;2022-10-16T08:46:41;4.10;;;3.70;;
5452;SDS011;2749;53.576;9.822;2022-10-16T08:49:11;8.57;;;4.50;;
5452;SDS011;2749;53.576;9.822;2022-10-16T08:51:38;3.87;;;3.47;;
5452;SDS011;2749;53.576;9.822;2022-10-16T08:54:05;4.30;;;3.57;;
5452;SDS011;2749;53.576;9.822;2022-10-16T08:56:32;4.20;;;3.90;;
5452;SDS011;2749;53.576;9.822;2022-10-16T08:58:58;6.23;;;3.47;;
5452;SDS011;2749;53.576;9.822;2022-10-16T09:01:26;5.33;;;4.07;;
5452;SDS011;2749;53.576;9.822;2022-10-16T09:11:26;3.43;;;3.10;;
5452;SDS011;2749;53.576;9.822;2022-10-16T09:16:30;3.90;;;3.40;;
5452;SDS011;2749;53.576;9.822;2022-10-16T09:19:04;7.63;;;2.80;;
5452;SDS011;2749;53.576;9.822;2022-10-16T09:21:44;4.43;;;3.10;;
5452;SDS011;2749;53.576;9.822;2022-10-16T09:24:20;4.23;;;2.60;;
5452;SDS011;2749;53.576;9.822;2022-10-16T09:26:48;3.33;;;2.20;;
5452;SDS011;2749;53.576;9.822;2022-10-16T09:29:15;7.23;;;3.43;;
5452;SDS011;2749;53.576;9.822;2022-10-16T09:31:42;3.90;;;2.40;;
5452;SDS011;2749;53.576;9.822;2022-10-16T09:36:52;3.80;;;2.50;;
5452;SDS011;2749;53.576;9.822;2022-10-16T09:39:19;9.47;;;3.10;;
5452;SDS011;2749;53.576;9.822;2022-10-16T09:41:45;3.50;;;2.40;;
5452;SDS011;2749;53.576;9.822;2022-10-16T09:44:17;3.83;;;2.27;;
5452;SDS011;2749;53.576;9.822;2022-10-16T09:46:44;3.10;;;2.37;;
5452;SDS011;2749;53.576;9.822;2022-10-16T09:49:23;4.73;;;2.50;;
5452;SDS011;2749;53.576;9.822;2022-10-16T09:51:49;2.63;;;2.30;;
5452;SDS011;2749;53.576;9.822;2022-10-16T09:54:20;3.67;;;2.10;;
5452;SDS011;2749;53.576;9.822;2022-10-16T09:56:46;2.60;;;2.17;;
5452;SDS011;2749;53.576;9.822;2022-10-16T09:59:19;3.30;;;2.10;;
5452;SDS011;2749;53.576;9.822;2022-10-16T10:01:49;3.40;;;2.20;;
5452;SDS011;2749;53.576;9.822;2022-10-16T10:04:16;7.20;;;2.50;;
5452;SDS011;2749;53.576;9.822;2022-10-16T10:06:46;2.33;;;1.87;;
5452;SDS011;2749;53.576;9.822;2022-10-16T10:11:40;1.60;;;1.40;;
5452;SDS011;2749;53.576;9.822;2022-10-16T10:14:13;2.90;;;2.10;;
5452;SDS011;2749;53.576;9.822;2022-10-16T10:16:41;6.13;;;2.53;;
5452;SDS011;2749;53.576;9.822;2022-10-16T10:19:12;7.27;;;1.90;;
5452;SDS011;2749;53.576;9.822;2022-10-16T10:21:39;6.40;;;2.43;;
5452;SDS011;2749;53.576;9.822;2022-10-16T10:24:08;2.87;;;1.80;;
5452;SDS011;2749;53.576;9.822;2022-10-16T10:26:35;2.50;;;2.27;;
5452;SDS011;2749;53.576;9.822;2022-10-16T10:29:06;8.40;;;2.60;;
5452;SDS011;2749;53.576;9.822;2022-10-16T10:31:46;3.70;;;1.93;;
5452;SDS011;2749;53.576;9.822;2022-10-16T10:36:56;5.80;;;2.37;;
5452;SDS011;2749;53.576;9.822;2022-10-16T10:39:27;6.00;;;1.60;;
5452;SDS011;2749;53.576;9.822;2022-10-16T10:44:57;7.97;;;2.73;;
5452;SDS011;2749;53.576;9.822;2022-10-16T10:52:30;2.37;;;1.30;;
5452;SDS011;2749;53.576;9.822;2022-10-16T10:55:09;5.23;;;1.47;;
5452;SDS011;2749;53.576;9.822;2022-10-16T11:05:58;5.27;;;1.63;;
5452;SDS011;2749;53.576;9.822;2022-10-16T11:10:56;3.70;;;1.23;;
5452;SDS011;2749;53.576;9.822;2022-10-16T11:13:26;3.80;;;1.50;;
5452;SDS011;2749;53.576;9.822;2022-10-16T11:15:56;7.90;;;1.27;;
5452;SDS011;2749;53.576;9.822;2022-10-16T11:18:25;1.80;;;1.20;;
5452;SDS011;2749;53.576;9.822;2022-10-16T11:21:00;3.60;;;1.33;;
5452;SDS011;2749;53.576;9.822;2022-10-16T11:23:29;4.10;;;1.33;;
5452;SDS011;2749;53.576;9.822;2022-10-16T11:25:57;7.07;;;1.87;;
5452;SDS011;2749;53.576;9.822;2022-10-16T11:28:35;3.37;;;1.20;;
5452;SDS011;2749;53.576;9.822;2022-10-16T11:33:46;6.83;;;1.37;;
5452;SDS011;2749;53.576;9.822;2022-10-16T11:36:33;3.10;;;1.40;;
5452;SDS011;2749;53.576;9.822;2022-10-16T11:39:20;3.50;;;1.73;;
5452;SDS011;2749;53.576;9.822;2022-10-16T11:44:36;4.97;;;1.43;;
5452;SDS011;2749;53.576;9.822;2022-10-16T11:49:32;3.13;;;1.30;;
5452;SDS011;2749;53.576;9.822;2022-10-16T11:52:06;3.37;;;1.43;;
5452;SDS011;2749;53.576;9.822;2022-10-16T11:57:20;2.57;;;1.90;;
5452;SDS011;2749;53.576;9.822;2022-10-16T12:02:33;3.80;;;1.10;;
5452;SDS011;2749;53.576;9.822;2022-10-16T12:07:34;5.47;;;2.13;;
5452;SDS011;2749;53.576;9.822;2022-10-16T12:10:11;2.30;;;1.53;;
5452;SDS011;2749;53.576;9.822;2022-10-16T12:12:44;3.63;;;1.57;;
5452;SDS011;2749;53.576;9.822;2022-10-16T12:17:43;5.43;;;2.10;;
5452;SDS011;2749;53.576;9.822;2022-10-16T12:22:48;4.60;;;1.60;;
5452;SDS011;2749;53.576;9.822;2022-10-16T12:25:25;6.27;;;1.67;;
5452;SDS011;2749;53.576;9.822;2022-10-16T12:27:53;2.57;;;1.40;;
5452;SDS011;2749;53.576;9.822;2022-10-16T12:30:21;3.70;;;1.33;;
5452;SDS011;2749;53.576;9.822;2022-10-16T12:32:53;2.57;;;1.23;;
5452;SDS011;2749;53.576;9.822;2022-10-16T12:35:23;2.50;;;1.20;;
5452;SDS011;2749;53.576;9.822;2022-10-16T12:37:50;4.17;;;1.80;;
5452;SDS011;2749;53.576;9.822;2022-10-16T12:40:27;5.87;;;1.30;;
5452;SDS011;2749;53.576;9.822;2022-10-16T12:42:54;2.63;;;1.20;;
5452;SDS011;2749;53.576;9.822;2022-10-16T12:47:51;4.80;;;1.57;;
5452;SDS011;2749;53.576;9.822;2022-10-16T12:52:54;3.03;;;1.20;;
5452;SDS011;2749;53.576;9.822;2022-10-16T12:55:20;6.33;;;2.00;;
5452;SDS011;2749;53.576;9.822;2022-10-16T13:00:32;1.93;;;1.40;;
5452;SDS011;2749;53.576;9.822;2022-10-16T13:03:22;4.63;;;1.30;;
5452;SDS011;2749;53.576;9.822;2022-10-16T13:06:07;4.63;;;1.50;;
5452;SDS011;2749;53.576;9.822;2022-10-16T13:11:15;2.90;;;1.50;;
5452;SDS011;2749;53.576;9.822;2022-10-16T13:18:48;4.30;;;1.80;;
5452;SDS011;2749;53.576;9.822;2022-10-16T13:24:02;4.50;;;1.47;;
5452;SDS011;2749;53.576;9.822;2022-10-16T13:29:05;5.60;;;1.90;;
5452;SDS011;2749;53.576;9.822;2022-10-16T13:31:31;4.07;;;1.60;;
5452;SDS011;2749;53.576;9.822;2022-10-16T13:33:59;1.40;;;1.10;;
5452;SDS011;2749;53.576;9.822;2022-10-16T13:36:27;2.17;;;1.60;;
5452;SDS011;2749;53.576;9.822;2022-10-16T13:39:10;5.17;;;1.43;;
5452;SDS011;2749;53.576;9.822;2022-10-16T13:41:36;2.03;;;1.07;;
5452;SDS011;2749;53.576;9.822;2022-10-16T13:44:02;4.67;;;1.43;;
5452;SDS011;2749;53.576;9.822;2022-10-16T13:46:28;5.73;;;1.50;;
5452;SDS011;2749;53.576;9.822;2022-10-16T13:49:00;3.03;;;1.50;;
5452;SDS011;2749;53.576;9.822;2022-10-16T13:51:27;5.27;;;1.10;;
5452;SDS011;2749;53.576;9.822;2022-10-16T13:53:54;4.07;;;1.20;;
5452;SDS011;2749;53.576;9.822;2022-10-16T13:56:22;4.53;;;1.70;;
5452;SDS011;2749;53.576;9.822;2022-10-16T13:59:01;4.00;;;1.20;;
5452;SDS011;2749;53.576;9.822;2022-10-16T14:01:28;2.57;;;1.47;;
5452;SDS011;2749;53.576;9.822;2022-10-16T14:04:00;3.40;;;1.20;;
5452;SDS011;2749;53.576;9.822;2022-10-16T14:06:26;2.13;;;1.77;;
5452;SDS011;2749;53.576;9.822;2022-10-16T14:08:58;3.20;;;1.13;;
5452;SDS011;2749;53.576;9.822;2022-10-16T14:11:25;4.00;;;1.80;;
5452;SDS011;2749;53.576;9.822;2022-10-16T14:13:51;3.80;;;1.73;;
5452;SDS011;2749;53.576;9.822;2022-10-16T14:16:18;2.93;;;1.40;;
5452;SDS011;2749;53.576;9.822;2022-10-16T14:18:45;2.47;;;1.40;;
5452;SDS011;2749;53.576;9.822;2022-10-16T14:21:12;7.77;;;1.90;;
5452;SDS011;2749;53.576;9.822;2022-10-16T14:23:39;3.10;;;1.10;;
5452;SDS011;2749;53.576;9.822;2022-10-16T14:26:15;4.53;;;1.60;;
5452;SDS011;2749;53.576;9.822;2022-10-16T14:28:42;1.93;;;1.60;;
5452;SDS011;2749;53.576;9.822;2022-10-16T14:33:53;7.10;;;1.70;;
5452;SDS011;2749;53.576;9.822;2022-10-16T14:36:19;5.60;;;1.83;;
5452;SDS011;2749;53.576;9.822;2022-10-16T14:39:00;6.73;;;1.00;;
5452;SDS011;2749;53.576;9.822;2022-10-16T14:41:26;5.43;;;1.30;;
5452;SDS011;2749;53.576;9.822;2022-10-16T14:43:54;2.40;;;1.17;;
5452;SDS011;2749;53.576;9.822;2022-10-16T14:46:21;4.50;;;1.60;;
5452;SDS011;2749;53.576;9.822;2022-10-16T14:48:52;2.57;;;1.30;;
5452;SDS011;2749;53.576;9.822;2022-10-16T14:51:20;2.60;;;1.30;;
5452;SDS011;2749;53.576;9.822;2022-10-16T14:53:47;3.47;;;1.20;;
5452;SDS011;2749;53.576;9.822;2022-10-16T14:56:32;3.40;;;1.40;;
5452;SDS011;2749;53.576;9.822;2022-10-16T14:58:59;2.50;;;1.37;;
5452;SDS011;2749;53.576;9.822;2022-10-16T15:01:26;4.60;;;1.50;;
5452;SDS011;2749;53.576;9.822;2022-10-16T15:03:52;4.53;;;2.17;;
5452;SDS011;2749;53.576;9.822;2022-10-16T15:06:19;3.63;;;1.20;;
5452;SDS011;2749;53.576;9.822;2022-10-16T15:08:46;4.43;;;1.33;;
5452;SDS011;2749;53.576;9.822;2022-10-16T15:11:13;4.73;;;1.90;;
5452;SDS011;2749;53.576;9.822;2022-10-16T15:13:39;4.43;;;1.40;;
5452;SDS011;2749;53.576;9.822;2022-10-16T15:16:07;6.60;;;1.40;;
5452;SDS011;2749;53.576;9.822;2022-10-16T15:18:34;1.70;;;0.90;;
5452;SDS011;2749;53.576;9.822;2022-10-16T15:21:00;8.97;;;1.53;;
5452;SDS011;2749;53.576;9.822;2022-10-16T15:23:26;4.00;;;1.00;;
5452;SDS011;2749;53.576;9.822;2022-10-16T15:25:52;4.40;;;1.73;;
5452;SDS011;2749;53.576;9.822;2022-10-16T15:28:19;3.00;;;1.63;;
5452;SDS011;2749;53.576;9.822;2022-10-16T15:30:45;4.53;;;1.47;;
5452;SDS011;2749;53.576;9.822;2022-10-16T15:33:18;2.17;;;1.20;;
5452;SDS011;2749;53.576;9.822;2022-10-16T15:35:48;6.73;;;2.30;;
5452;SDS011;2749;53.576;9.822;2022-10-16T15:38:14;6.43;;;1.80;;
5452;SDS011;2749;53.576;9.822;2022-10-16T15:40:40;2.43;;;1.10;;
5452;SDS011;2749;53.576;9.822;2022-10-16T15:43:07;4.67;;;1.70;;
5452;SDS011;2749;53.576;9.822;2022-10-16T15:45:33;6.40;;;2.10;;
5452;SDS011;2749;53.576;9.822;2022-10-16T15:47:59;3.80;;;1.70;;
5452;SDS011;2749;53.576;9.822;2022-10-16T15:50:25;2.83;;;2.17;;
5452;SDS011;2749;53.576;9.822;2022-10-16T15:52:51;2.63;;;1.30;;
5452;SDS011;2749;53.576;9.822;2022-10-16T15:55:17;3.27;;;1.83;;
5452;SDS011;2749;53.576;9.822;2022-10-16T15:57:44;5.53;;;1.50;;
5452;SDS011;2749;53.576;9.822;2022-10-16T16:00:11;3.40;;;1.77;;
5452;SDS011;2749;53.576;9.822;2022-10-16T16:02:38;1.63;;;1.23;;
5452;SDS011;2749;53.576;9.822;2022-10-16T16:05:04;6.17;;;1.93;;
5452;SDS011;2749;53.576;9.822;2022-10-16T16:07:37;5.73;;;2.13;;
5452;SDS011;2749;53.576;9.822;2022-10-16T16:10:05;4.67;;;1.70;;
5452;SDS011;2749;53.576;9.822;2022-10-16T16:12:32;3.17;;;2.87;;
5452;SDS011;2749;53.576;9.822;2022-10-16T16:14:58;6.00;;;1.97;;
5452;SDS011;2749;53.576;9.822;2022-10-16T16:17:24;3.13;;;1.50;;
5452;SDS011;2749;53.576;9.822;2022-10-16T16:19:50;4.53;;;2.17;;
5452;SDS011;2749;53.576;9.822;2022-10-16T16:22:16;4.10;;;2.30;;
5452;SDS011;2749;53.576;9.822;2022-10-16T16:24:42;3.10;;;2.40;;
5452;SDS011;2749;53.576;9.822;2022-10-16T16:27:09;4.77;;;2.63;;
5452;SDS011;2749;53.576;9.822;2022-10-16T16:29:35;2.93;;;2.30;;
5452;SDS011;2749;53.576;9.822;2022-10-16T16:32:01;4.47;;;2.50;;
5452;SDS011;2749;53.576;9.822;2022-10-16T16:34:27;4.93;;;2.00;;
5452;SDS011;2749;53.576;9.822;2022-10-16T16:36:54;5.20;;;2.63;;
5452;SDS011;2749;53.576;9.822;2022-10-16T16:39:20;9.60;;;3.70;;
5452;SDS011;2749;53.576;9.822;2022-10-16T16:41:46;9.43;;;3.93;;
5452;SDS011;2749;53.576;9.822;2022-10-16T16:44:12;8.80;;;4.43;;
5452;SDS011;2749;53.576;9.822;2022-10-16T16:46:38;6.03;;;2.57;;
5452;SDS011;2749;53.576;9.822;2022-10-16T16:49:04;6.53;;;3.80;;
5452;SDS011;2749;53.576;9.822;2022-10-16T16:51:30;10.87;;;3.17;;
5452;SDS011;2749;53.576;9.822;2022-10-16T16:53:56;11.13;;;4.00;;
5452;SDS011;2749;53.576;9.822;2022-10-16T16:56:23;8.50;;;5.20;;